createdAt,value
2024-01-03T00:03:07.184Z,97906.31
2024-01-03T00:08:19.546Z,97815.34
2024-01-03T00:13:34.255Z,97839.00
2024-01-03T00:18:52.084Z,97815.19
2024-01-03T00:23:58.045Z,97814.09
2024-01-03T00:29:01.722Z,97846.34
2024-01-03T00:34:11.699Z,97832.13
2024-01-03T00:39:15.009Z,97943.63
2024-01-03T00:44:18.340Z,97940.88
2024-01-03T00:49:22.001Z,97875.72
2024-01-03T00:54:26.379Z,97904.84
2024-01-03T00:59:29.696Z,97960.59
2024-01-03T01:04:34.552Z,97917.00
2024-01-03T01:09:37.412Z,97956.63
2024-01-03T01:14:40.778Z,97940.53
2024-01-03T01:19:44.643Z,97947.94
2024-01-03T01:24:47.618Z,97967.16
2024-01-03T01:29:50.595Z,97880.03
2024-01-03T01:34:53.661Z,97879.31
2024-01-03T01:39:56.578Z,97962.13
2024-01-03T01:44:59.392Z,98004.16
2024-01-03T01:50:02.584Z,97924.06
2024-01-03T01:55:06.777Z,98016.69
2024-01-03T02:00:11.309Z,97894.19
2024-01-03T02:05:18.828Z,98059.88
2024-01-03T02:10:21.934Z,98049.59
2024-01-03T02:15:24.901Z,97917.19
2024-01-03T02:20:36.522Z,97968.66
2024-01-03T02:25:40.545Z,97930.97
2024-01-03T02:30:46.280Z,97857.19
2024-01-03T02:35:49.385Z,97885.94
2024-01-03T02:40:52.903Z,97937.34
2024-01-03T02:45:55.730Z,97980.91
2024-01-03T02:50:58.837Z,97944.84
2024-01-03T02:56:01.731Z,97922.50
2024-01-03T03:01:06.176Z,97949.59
2024-01-03T03:06:09.833Z,97962.94
2024-01-03T03:11:13.220Z,97932.75
2024-01-03T03:16:16.295Z,97965.28
2024-01-03T03:21:19.198Z,97967.22
2024-01-03T03:26:22.410Z,97920.53
2024-01-03T03:31:25.272Z,97848.81
2024-01-03T03:36:28.337Z,97915.84
2024-01-03T03:41:31.437Z,97921.81
2024-01-03T03:46:35.101Z,97934.34
2024-01-03T03:51:37.953Z,97901.06
2024-01-03T03:56:41.076Z,97951.25
2024-01-03T04:01:51.351Z,97924.44
2024-01-03T04:06:54.557Z,97958.25
2024-01-03T04:11:57.712Z,97941.72
2024-01-03T04:17:00.862Z,97957.84
2024-01-03T04:22:03.902Z,97918.56
2024-01-03T04:27:07.049Z,97992.41
2024-01-03T04:32:10.279Z,97997.91
2024-01-03T04:37:13.546Z,97993.50
2024-01-03T04:42:16.730Z,97901.28
2024-01-03T04:47:19.619Z,97957.84
2024-01-03T04:52:22.516Z,97935.13
2024-01-03T04:57:25.705Z,97960.91
2024-01-03T05:02:28.821Z,97990.16
2024-01-03T05:07:32.437Z,97917.13
2024-01-03T05:12:35.755Z,98019.66
2024-01-03T05:17:39.208Z,97910.56
2024-01-03T05:22:42.433Z,97973.78
2024-01-03T05:27:45.521Z,97967.53
2024-01-03T05:32:48.463Z,98051.09
2024-01-03T05:37:53.682Z,98011.50
2024-01-03T05:42:56.848Z,98018.53
2024-01-03T05:48:00.190Z,98075.00
2024-01-03T05:53:04.103Z,98112.75
2024-01-03T05:58:07.439Z,98085.25
2024-01-03T06:03:10.694Z,97991.78
2024-01-03T06:08:14.018Z,97947.47
2024-01-03T06:13:17.012Z,97974.63
2024-01-03T06:18:20.257Z,98033.88
2024-01-03T06:23:25.286Z,98079.75
2024-01-03T06:28:28.219Z,97975.31
2024-01-03T06:33:31.557Z,98031.91
2024-01-03T06:38:34.827Z,98012.66
2024-01-03T06:43:37.873Z,98029.94
2024-01-03T06:48:41.095Z,98082.56
2024-01-03T06:53:44.431Z,98037.34
2024-01-03T06:58:47.512Z,98050.31
2024-01-03T07:03:50.757Z,98033.44
2024-01-03T07:08:56.270Z,98021.66
2024-01-03T07:14:00.528Z,98112.78
2024-01-03T07:19:03.742Z,97971.41
2024-01-03T07:24:07.365Z,98011.13
2024-01-03T07:29:10.453Z,97971.44
2024-01-03T07:34:14.175Z,98031.47
2024-01-03T07:39:17.623Z,98024.41
2024-01-03T07:44:20.581Z,97923.53
2024-01-03T07:49:23.607Z,98005.19
2024-01-03T07:54:27.002Z,97922.78
2024-01-03T07:59:30.014Z,98004.41
2024-01-03T08:04:33.121Z,98023.19
2024-01-03T08:09:38.901Z,97946.25
2024-01-03T08:14:41.812Z,98007.41
2024-01-03T08:19:44.839Z,97998.81
2024-01-03T08:24:48.361Z,97890.41
2024-01-03T08:29:52.615Z,98012.06
2024-01-03T08:34:55.686Z,98025.84
2024-01-03T08:39:58.787Z,98015.19
2024-01-03T08:45:01.972Z,97988.41
2024-01-03T08:50:05.680Z,97961.06
2024-01-03T08:55:08.907Z,98083.97
2024-01-03T09:00:12.651Z,97983.75
2024-01-03T09:05:15.907Z,97967.28
2024-01-03T09:10:19.121Z,97945.66
2024-01-03T09:15:21.963Z,97987.75
2024-01-03T09:20:24.859Z,98031.66
2024-01-03T09:25:27.973Z,98020.66
2024-01-03T09:30:31.055Z,98052.09
2024-01-03T09:35:34.280Z,97972.25
2024-01-03T09:40:37.160Z,98000.19
2024-01-03T09:45:41.728Z,98022.91
2024-01-03T09:50:46.524Z,98020.53
2024-01-03T09:55:50.672Z,98024.41
2024-01-03T10:00:53.931Z,98089.50
2024-01-03T10:06:19.286Z,98068.84
2024-01-03T10:11:25.122Z,98098.03
2024-01-03T10:16:29.975Z,98045.38
2024-01-03T10:21:33.062Z,97972.44
2024-01-03T10:26:36.403Z,98053.41
2024-01-03T10:31:39.802Z,97975.69
2024-01-03T10:36:44.187Z,98038.47
2024-01-03T10:41:52.968Z,98017.38
2024-01-03T10:46:57.260Z,98064.50
2024-01-03T10:52:06.891Z,98094.31
2024-01-03T10:57:13.813Z,98079.34
2024-01-03T11:02:38.833Z,98008.63
2024-01-03T11:08:00.068Z,98096.59
2024-01-03T11:13:03.108Z,98086.31
2024-01-03T11:18:06.807Z,98052.81
2024-01-03T11:23:09.741Z,98061.88
2024-01-03T11:28:37.303Z,98018.50
2024-01-03T11:33:40.972Z,98076.63
2024-01-03T11:38:45.716Z,98011.69
2024-01-03T11:43:49.174Z,97989.63
2024-01-03T11:48:52.135Z,98014.41
2024-01-03T11:53:57.710Z,98017.47
2024-01-03T11:59:04.269Z,97966.38
2024-01-03T12:04:14.759Z,97920.38
2024-01-03T12:09:18.989Z,97957.28
2024-01-03T12:14:22.479Z,98003.69
2024-01-03T12:19:29.932Z,97922.78
2024-01-03T12:24:44.056Z,97928.22
2024-01-03T12:29:47.051Z,97896.06
2024-01-03T12:35:02.510Z,98027.13
2024-01-03T12:40:06.447Z,97979.88
2024-01-03T12:45:10.063Z,97934.88
2024-01-03T12:50:12.922Z,97871.91
2024-01-03T12:55:16.193Z,97825.81
2024-01-03T13:00:19.292Z,97873.47
2024-01-03T13:05:22.562Z,97915.16
2024-01-03T13:10:26.228Z,97904.94
2024-01-03T13:15:30.047Z,97787.44
2024-01-03T13:20:34.797Z,97857.31
2024-01-03T13:25:37.915Z,97817.81
2024-01-03T13:30:40.884Z,97750.69
2024-01-03T13:35:44.021Z,97841.75
2024-01-03T13:40:47.898Z,97726.97
2024-01-03T13:45:50.731Z,97764.78
2024-01-03T13:50:54.318Z,97804.19
2024-01-03T13:55:57.385Z,97742.25
2024-01-03T14:01:00.295Z,97754.69
2024-01-03T14:06:05.180Z,97832.09
2024-01-03T14:11:08.332Z,97702.25
2024-01-03T14:16:11.252Z,97804.16
2024-01-03T14:21:14.183Z,97809.78
2024-01-03T14:26:17.155Z,97803.91
2024-01-03T14:31:25.501Z,97784.91
2024-01-03T14:36:28.347Z,97715.25
2024-01-03T14:41:31.413Z,97749.38
2024-01-03T14:46:34.625Z,97706.59
2024-01-03T14:51:37.516Z,97679.97
2024-01-03T14:56:41.819Z,97753.78
2024-01-03T15:01:47.854Z,97725.53
2024-01-03T15:06:57.663Z,97720.28
2024-01-03T15:12:00.744Z,97696.25
2024-01-03T15:17:04.620Z,97658.25
2024-01-03T15:22:16.876Z,97616.19
2024-01-03T15:27:19.891Z,97644.53
2024-01-03T15:32:22.812Z,97643.06
2024-01-03T15:37:26.339Z,97615.63
2024-01-03T15:42:29.193Z,97560.72
2024-01-03T15:47:32.275Z,97553.50
2024-01-03T15:52:37.113Z,97609.16
2024-01-03T15:57:43.120Z,97598.47
2024-01-03T16:02:46.077Z,97505.41
2024-01-03T16:07:48.950Z,97519.44
2024-01-03T16:12:51.823Z,97550.88
2024-01-03T16:17:54.717Z,97568.94
2024-01-03T16:22:58.756Z,97527.75
2024-01-03T16:28:02.420Z,97550.34
2024-01-03T16:33:07.839Z,97406.53
2024-01-03T16:38:12.514Z,97518.47
2024-01-03T16:43:15.370Z,97489.06
2024-01-03T16:48:18.955Z,97416.84
2024-01-03T16:53:21.873Z,97456.41
2024-01-03T16:58:25.584Z,97423.31
2024-01-03T17:03:31.992Z,97522.75
2024-01-03T17:08:35.065Z,97506.06
2024-01-03T17:13:38.639Z,97476.75
2024-01-03T17:18:42.405Z,97528.22
2024-01-03T17:23:45.825Z,97516.19
2024-01-03T17:28:50.270Z,97529.69
2024-01-03T17:33:53.310Z,97630.34
2024-01-03T17:38:56.372Z,97494.44
2024-01-03T17:44:00.349Z,97533.78
2024-01-03T17:49:03.799Z,97500.06
2024-01-03T17:54:06.846Z,97539.63
2024-01-03T17:59:11.903Z,97483.75
2024-01-03T18:04:15.757Z,97561.25
2024-01-03T18:09:18.724Z,97518.31
2024-01-03T18:14:21.643Z,97628.00
2024-01-03T18:19:24.547Z,97586.84
2024-01-03T18:24:27.532Z,97620.09
2024-01-03T18:29:30.985Z,97638.72
2024-01-03T18:34:35.020Z,97617.63
2024-01-03T18:39:38.152Z,97598.84
2024-01-03T18:44:41.296Z,97613.03
2024-01-03T18:49:44.285Z,97666.25
2024-01-03T18:54:47.357Z,97735.94
2024-01-03T18:59:50.533Z,97747.28
2024-01-03T19:04:53.757Z,97786.81
2024-01-03T19:09:56.803Z,97707.72
2024-01-03T19:14:59.908Z,97728.00
2024-01-03T19:20:03.756Z,97753.84
2024-01-03T19:25:08.190Z,97746.44
2024-01-03T19:30:12.082Z,97779.78
2024-01-03T19:35:15.027Z,97743.03
2024-01-03T19:40:17.856Z,97744.56
2024-01-03T19:45:21.141Z,97735.75
2024-01-03T19:50:24.415Z,97716.19
2024-01-03T19:55:27.378Z,97679.06
2024-01-03T20:00:30.381Z,97722.47
2024-01-03T20:05:33.856Z,97673.19
2024-01-03T20:10:37.456Z,97767.31
2024-01-03T20:15:40.257Z,97835.56
2024-01-03T20:20:45.138Z,97871.63
2024-01-03T20:25:48.003Z,97709.38
2024-01-03T20:30:53.968Z,97787.00
2024-01-03T20:35:57.236Z,97783.88
2024-01-03T20:41:00.080Z,97803.53
2024-01-03T20:46:02.970Z,97855.28
2024-01-03T20:51:14.378Z,97874.13
2024-01-03T20:56:17.247Z,97827.03
2024-01-03T21:01:20.134Z,97870.94
2024-01-03T21:06:23.061Z,97790.94
2024-01-03T21:11:25.902Z,97953.31
2024-01-03T21:16:28.710Z,97897.56
2024-01-03T21:21:34.744Z,97903.47
2024-01-03T21:26:39.110Z,97832.44
2024-01-03T21:31:42.099Z,97855.19
2024-01-03T21:36:45.098Z,97819.13
2024-01-03T21:41:47.970Z,97798.34
2024-01-03T21:46:50.949Z,97911.78
2024-01-03T21:51:53.799Z,97827.06
2024-01-03T21:56:56.738Z,97916.53
2024-01-03T22:01:59.529Z,97930.25
2024-01-03T22:07:02.421Z,97864.69
2024-01-03T22:12:07.854Z,97825.53
2024-01-03T22:17:10.912Z,97908.72
2024-01-03T22:22:14.066Z,97904.41
2024-01-03T22:27:17.035Z,97913.78
2024-01-03T22:32:19.909Z,97866.34
2024-01-03T22:37:22.962Z,97924.41
2024-01-03T22:42:26.108Z,97857.00
2024-01-03T22:47:29.111Z,97942.53
2024-01-03T22:52:32.171Z,97854.69
2024-01-03T22:57:37.069Z,97951.56
2024-01-03T23:02:40.191Z,97951.56
2024-01-03T23:07:43.110Z,97912.72
2024-01-03T23:12:46.045Z,97876.66
2024-01-03T23:17:49.108Z,97926.44
2024-01-03T23:23:03.836Z,97871.16
2024-01-03T23:28:10.885Z,97897.06
2024-01-03T23:33:13.934Z,97828.03
2024-01-03T23:38:16.885Z,97968.47
2024-01-03T23:43:19.709Z,97925.28
2024-01-03T23:48:23.313Z,98026.53
2024-01-03T23:53:26.178Z,98010.03
2024-01-03T23:58:29.131Z,97956.28
